sensor_id;sensor_type;location;lat;lon;timestamp;P1;durP1;ratioP1;P2;durP2;ratioP2
39264;SDS011;42646;51.910;7.724;2022-09-29T00:00:25;9.65;;;8.05;;
39264;SDS011;42646;51.910;7.724;2022-09-29T00:02:53;9.65;;;7.88;;
39264;SDS011;42646;51.910;7.724;2022-09-29T00:05:21;9.90;;;7.75;;
39264;SDS011;42646;51.910;7.724;2022-09-29T00:07:48;9.65;;;7.55;;
39264;SDS011;42646;51.910;7.724;2022-09-29T00:10:16;8.68;;;7.57;;
39264;SDS011;42646;51.910;7.724;2022-09-29T00:12:44;9.55;;;8.18;;
39264;SDS011;42646;51.910;7.724;2022-09-29T00:15:12;10.70;;;8.10;;
39264;SDS011;42646;51.910;7.724;2022-09-29T00:17:41;10.15;;;8.15;;
39264;SDS011;42646;51.910;7.724;2022-09-29T00:20:29;10.23;;;7.95;;
39264;SDS011;42646;51.910;7.724;2022-09-29T00:22:56;10.02;;;8.05;;
39264;SDS011;42646;51.910;7.724;2022-09-29T00:25:24;12.07;;;8.70;;
39264;SDS011;42646;51.910;7.724;2022-09-29T00:27:52;9.35;;;7.88;;
39264;SDS011;42646;51.910;7.724;2022-09-29T00:30:19;9.68;;;8.25;;
39264;SDS011;42646;51.910;7.724;2022-09-29T00:32:48;10.50;;;8.10;;
39264;SDS011;42646;51.910;7.724;2022-09-29T00:35:16;9.68;;;7.82;;
39264;SDS011;42646;51.910;7.724;2022-09-29T00:37:44;9.65;;;7.60;;
39264;SDS011;42646;51.910;7.724;2022-09-29T00:40:11;9.98;;;8.45;;
39264;SDS011;42646;51.910;7.724;2022-09-29T00:42:39;11.73;;;8.40;;
39264;SDS011;42646;51.910;7.724;2022-09-29T00:45:15;9.32;;;8.20;;
39264;SDS011;42646;51.910;7.724;2022-09-29T00:47:46;9.63;;;8.18;;
39264;SDS011;42646;51.910;7.724;2022-09-29T00:50:21;11.60;;;8.52;;
39264;SDS011;42646;51.910;7.724;2022-09-29T00:52:52;10.40;;;8.63;;
39264;SDS011;42646;51.910;7.724;2022-09-29T00:55:24;10.18;;;8.32;;
39264;SDS011;42646;51.910;7.724;2022-09-29T00:57:55;10.45;;;8.40;;
39264;SDS011;42646;51.910;7.724;2022-09-29T01:00:28;10.82;;;8.70;;
39264;SDS011;42646;51.910;7.724;2022-09-29T01:02:59;9.68;;;8.18;;
39264;SDS011;42646;51.910;7.724;2022-09-29T01:05:31;10.60;;;8.80;;
39264;SDS011;42646;51.910;7.724;2022-09-29T01:08:05;10.40;;;8.55;;
39264;SDS011;42646;51.910;7.724;2022-09-29T01:10:38;11.63;;;8.70;;
39264;SDS011;42646;51.910;7.724;2022-09-29T01:13:07;10.48;;;8.52;;
39264;SDS011;42646;51.910;7.724;2022-09-29T01:15:35;10.65;;;8.60;;
39264;SDS011;42646;51.910;7.724;2022-09-29T01:18:04;10.93;;;8.43;;
39264;SDS011;42646;51.910;7.724;2022-09-29T01:20:34;10.40;;;8.18;;
39264;SDS011;42646;51.910;7.724;2022-09-29T01:26:17;10.48;;;8.40;;
39264;SDS011;42646;51.910;7.724;2022-09-29T01:29:08;10.43;;;8.90;;
39264;SDS011;42646;51.910;7.724;2022-09-29T01:31:55;10.75;;;9.10;;
39264;SDS011;42646;51.910;7.724;2022-09-29T01:34:28;10.77;;;8.38;;
39264;SDS011;42646;51.910;7.724;2022-09-29T01:37:05;11.90;;;9.02;;
39264;SDS011;42646;51.910;7.724;2022-09-29T01:39:40;11.02;;;8.65;;
39264;SDS011;42646;51.910;7.724;2022-09-29T01:42:14;11.90;;;9.15;;
39264;SDS011;42646;51.910;7.724;2022-09-29T01:44:45;11.38;;;9.20;;
39264;SDS011;42646;51.910;7.724;2022-09-29T01:47:19;10.10;;;8.68;;
39264;SDS011;42646;51.910;7.724;2022-09-29T01:49:52;11.75;;;8.98;;
39264;SDS011;42646;51.910;7.724;2022-09-29T01:52:26;9.75;;;8.40;;
39264;SDS011;42646;51.910;7.724;2022-09-29T01:54:57;9.98;;;8.35;;
39264;SDS011;42646;51.910;7.724;2022-09-29T01:57:28;12.07;;;8.87;;
39264;SDS011;42646;51.910;7.724;2022-09-29T02:00:03;11.93;;;9.15;;
39264;SDS011;42646;51.910;7.724;2022-09-29T02:02:42;12.00;;;8.95;;
39264;SDS011;42646;51.910;7.724;2022-09-29T02:05:15;10.45;;;8.32;;
39264;SDS011;42646;51.910;7.724;2022-09-29T02:07:48;10.80;;;8.95;;
39264;SDS011;42646;51.910;7.724;2022-09-29T02:10:18;12.15;;;8.38;;
39264;SDS011;42646;51.910;7.724;2022-09-29T02:12:50;10.30;;;8.52;;
39264;SDS011;42646;51.910;7.724;2022-09-29T02:15:22;13.35;;;9.32;;
39264;SDS011;42646;51.910;7.724;2022-09-29T02:17:56;10.80;;;8.73;;
39264;SDS011;42646;51.910;7.724;2022-09-29T02:20:28;10.23;;;8.32;;
39264;SDS011;42646;51.910;7.724;2022-09-29T02:22:56;10.52;;;8.88;;
39264;SDS011;42646;51.910;7.724;2022-09-29T02:25:24;11.52;;;9.32;;
39264;SDS011;42646;51.910;7.724;2022-09-29T02:27:52;11.93;;;8.95;;
39264;SDS011;42646;51.910;7.724;2022-09-29T02:30:19;12.02;;;8.63;;
39264;SDS011;42646;51.910;7.724;2022-09-29T02:32:47;12.00;;;9.20;;
39264;SDS011;42646;51.910;7.724;2022-09-29T02:35:16;10.63;;;8.77;;
39264;SDS011;42646;51.910;7.724;2022-09-29T02:37:46;10.90;;;8.93;;
39264;SDS011;42646;51.910;7.724;2022-09-29T02:40:36;10.98;;;8.80;;
39264;SDS011;42646;51.910;7.724;2022-09-29T02:43:15;11.25;;;8.15;;
39264;SDS011;42646;51.910;7.724;2022-09-29T02:45:59;12.50;;;8.27;;
39264;SDS011;42646;51.910;7.724;2022-09-29T02:48:54;10.98;;;8.25;;
39264;SDS011;42646;51.910;7.724;2022-09-29T02:51:35;10.25;;;8.05;;
39264;SDS011;42646;51.910;7.724;2022-09-29T02:54:09;10.20;;;8.32;;
39264;SDS011;42646;51.910;7.724;2022-09-29T02:56:52;10.00;;;8.07;;
39264;SDS011;42646;51.910;7.724;2022-09-29T02:59:29;12.15;;;8.15;;
39264;SDS011;42646;51.910;7.724;2022-09-29T03:02:01;9.80;;;8.18;;
39264;SDS011;42646;51.910;7.724;2022-09-29T03:04:29;10.60;;;8.48;;
39264;SDS011;42646;51.910;7.724;2022-09-29T03:06:59;9.60;;;8.50;;
39264;SDS011;42646;51.910;7.724;2022-09-29T03:09:26;10.93;;;8.90;;
39264;SDS011;42646;51.910;7.724;2022-09-29T03:11:54;9.20;;;7.90;;
39264;SDS011;42646;51.910;7.724;2022-09-29T03:14:22;10.30;;;8.68;;
39264;SDS011;42646;51.910;7.724;2022-09-29T03:16:50;11.55;;;9.18;;
39264;SDS011;42646;51.910;7.724;2022-09-29T03:19:17;11.18;;;8.93;;
39264;SDS011;42646;51.910;7.724;2022-09-29T03:21:45;12.57;;;8.77;;
39264;SDS011;42646;51.910;7.724;2022-09-29T03:24:14;10.68;;;8.63;;
39264;SDS011;42646;51.910;7.724;2022-09-29T03:26:42;11.73;;;8.60;;
39264;SDS011;42646;51.910;7.724;2022-09-29T03:29:09;12.27;;;8.68;;
39264;SDS011;42646;51.910;7.724;2022-09-29T03:31:38;11.18;;;8.27;;
39264;SDS011;42646;51.910;7.724;2022-09-29T03:34:05;11.45;;;8.80;;
39264;SDS011;42646;51.910;7.724;2022-09-29T03:36:33;12.38;;;8.40;;
39264;SDS011;42646;51.910;7.724;2022-09-29T03:39:00;9.55;;;7.72;;
39264;SDS011;42646;51.910;7.724;2022-09-29T03:41:29;11.32;;;8.40;;
39264;SDS011;42646;51.910;7.724;2022-09-29T03:43:57;10.20;;;8.45;;
39264;SDS011;42646;51.910;7.724;2022-09-29T03:46:25;9.98;;;7.47;;
39264;SDS011;42646;51.910;7.724;2022-09-29T03:48:53;10.88;;;8.63;;
39264;SDS011;42646;51.910;7.724;2022-09-29T03:51:20;12.98;;;10.38;;
39264;SDS011;42646;51.910;7.724;2022-09-29T03:53:48;11.65;;;8.82;;
39264;SDS011;42646;51.910;7.724;2022-09-29T03:56:15;11.82;;;8.80;;
39264;SDS011;42646;51.910;7.724;2022-09-29T03:58:44;12.23;;;9.20;;
39264;SDS011;42646;51.910;7.724;2022-09-29T04:01:15;10.38;;;8.63;;
39264;SDS011;42646;51.910;7.724;2022-09-29T04:03:43;10.48;;;8.05;;
39264;SDS011;42646;51.910;7.724;2022-09-29T04:06:10;9.57;;;8.00;;
39264;SDS011;42646;51.910;7.724;2022-09-29T04:08:38;10.35;;;8.05;;
39264;SDS011;42646;51.910;7.724;2022-09-29T04:11:06;10.30;;;7.93;;
39264;SDS011;42646;51.910;7.724;2022-09-29T04:13:33;9.98;;;8.10;;
39264;SDS011;42646;51.910;7.724;2022-09-29T04:16:03;9.65;;;8.15;;
39264;SDS011;42646;51.910;7.724;2022-09-29T04:18:32;10.18;;;8.10;;
39264;SDS011;42646;51.910;7.724;2022-09-29T04:21:03;10.13;;;8.45;;
39264;SDS011;42646;51.910;7.724;2022-09-29T04:23:32;9.82;;;8.23;;
39264;SDS011;42646;51.910;7.724;2022-09-29T04:26:00;10.57;;;8.82;;
39264;SDS011;42646;51.910;7.724;2022-09-29T04:28:29;10.60;;;8.40;;
39264;SDS011;42646;51.910;7.724;2022-09-29T04:30:57;10.43;;;8.20;;
39264;SDS011;42646;51.910;7.724;2022-09-29T04:33:26;10.68;;;8.20;;
39264;SDS011;42646;51.910;7.724;2022-09-29T04:35:55;10.60;;;8.20;;
39264;SDS011;42646;51.910;7.724;2022-09-29T04:38:23;10.75;;;8.55;;
39264;SDS011;42646;51.910;7.724;2022-09-29T04:40:50;10.43;;;8.80;;
39264;SDS011;42646;51.910;7.724;2022-09-29T04:43:18;10.00;;;7.97;;
39264;SDS011;42646;51.910;7.724;2022-09-29T04:45:46;11.18;;;8.75;;
39264;SDS011;42646;51.910;7.724;2022-09-29T04:48:13;12.25;;;9.18;;
39264;SDS011;42646;51.910;7.724;2022-09-29T04:50:42;10.27;;;8.40;;
39264;SDS011;42646;51.910;7.724;2022-09-29T04:53:10;11.30;;;8.70;;
39264;SDS011;42646;51.910;7.724;2022-09-29T04:55:38;11.00;;;8.10;;
39264;SDS011;42646;51.910;7.724;2022-09-29T04:58:06;9.90;;;7.85;;
39264;SDS011;42646;51.910;7.724;2022-09-29T05:00:34;10.68;;;7.82;;
39264;SDS011;42646;51.910;7.724;2022-09-29T05:03:02;9.32;;;7.82;;
39264;SDS011;42646;51.910;7.724;2022-09-29T05:05:29;13.35;;;7.82;;
39264;SDS011;42646;51.910;7.724;2022-09-29T05:07:58;10.60;;;8.07;;
39264;SDS011;42646;51.910;7.724;2022-09-29T05:10:29;10.05;;;7.80;;
39264;SDS011;42646;51.910;7.724;2022-09-29T05:12:57;12.15;;;8.35;;
39264;SDS011;42646;51.910;7.724;2022-09-29T05:15:25;12.60;;;9.10;;
39264;SDS011;42646;51.910;7.724;2022-09-29T05:17:52;11.40;;;8.40;;
39264;SDS011;42646;51.910;7.724;2022-09-29T05:20:20;11.43;;;8.48;;
39264;SDS011;42646;51.910;7.724;2022-09-29T05:22:47;10.80;;;8.35;;
39264;SDS011;42646;51.910;7.724;2022-09-29T05:25:16;11.90;;;8.35;;
39264;SDS011;42646;51.910;7.724;2022-09-29T05:27:44;11.88;;;8.40;;
39264;SDS011;42646;51.910;7.724;2022-09-29T05:30:12;11.80;;;8.05;;
39264;SDS011;42646;51.910;7.724;2022-09-29T05:32:40;12.20;;;8.73;;
39264;SDS011;42646;51.910;7.724;2022-09-29T05:35:09;11.80;;;8.68;;
39264;SDS011;42646;51.910;7.724;2022-09-29T05:37:36;12.02;;;9.43;;
39264;SDS011;42646;51.910;7.724;2022-09-29T05:40:04;12.13;;;8.45;;
39264;SDS011;42646;51.910;7.724;2022-09-29T05:42:34;12.45;;;8.57;;
39264;SDS011;42646;51.910;7.724;2022-09-29T05:45:02;13.93;;;8.27;;
39264;SDS011;42646;51.910;7.724;2022-09-29T05:47:31;11.63;;;8.52;;
39264;SDS011;42646;51.910;7.724;2022-09-29T05:49:59;12.15;;;8.30;;
39264;SDS011;42646;51.910;7.724;2022-09-29T05:52:28;11.38;;;8.13;;
39264;SDS011;42646;51.910;7.724;2022-09-29T05:54:55;11.18;;;8.55;;
39264;SDS011;42646;51.910;7.724;2022-09-29T05:57:23;9.63;;;8.10;;
39264;SDS011;42646;51.910;7.724;2022-09-29T05:59:52;10.50;;;8.30;;
39264;SDS011;42646;51.910;7.724;2022-09-29T06:02:21;13.32;;;8.00;;
39264;SDS011;42646;51.910;7.724;2022-09-29T06:04:49;10.45;;;8.15;;
39264;SDS011;42646;51.910;7.724;2022-09-29T06:07:17;11.50;;;8.27;;
39264;SDS011;42646;51.910;7.724;2022-09-29T06:09:44;9.98;;;7.68;;
39264;SDS011;42646;51.910;7.724;2022-09-29T06:12:12;11.35;;;8.50;;
39264;SDS011;42646;51.910;7.724;2022-09-29T06:14:46;11.93;;;7.97;;
39264;SDS011;42646;51.910;7.724;2022-09-29T06:17:15;12.07;;;8.20;;
39264;SDS011;42646;51.910;7.724;2022-09-29T06:19:43;12.55;;;8.20;;
39264;SDS011;42646;51.910;7.724;2022-09-29T06:22:10;11.10;;;8.55;;
39264;SDS011;42646;51.910;7.724;2022-09-29T06:24:38;10.25;;;8.18;;
39264;SDS011;42646;51.910;7.724;2022-09-29T06:27:05;11.65;;;9.13;;
39264;SDS011;42646;51.910;7.724;2022-09-29T06:29:33;11.52;;;8.60;;
39264;SDS011;42646;51.910;7.724;2022-09-29T06:32:01;11.82;;;9.07;;
39264;SDS011;42646;51.910;7.724;2022-09-29T06:34:30;11.82;;;9.07;;
39264;SDS011;42646;51.910;7.724;2022-09-29T06:36:57;11.48;;;8.32;;
39264;SDS011;42646;51.910;7.724;2022-09-29T06:39:42;10.95;;;8.45;;
39264;SDS011;42646;51.910;7.724;2022-09-29T06:42:10;12.55;;;9.27;;
39264;SDS011;42646;51.910;7.724;2022-09-29T06:44:38;13.13;;;9.05;;
39264;SDS011;42646;51.910;7.724;2022-09-29T06:47:06;11.88;;;9.13;;
39264;SDS011;42646;51.910;7.724;2022-09-29T06:49:34;11.60;;;9.23;;
39264;SDS011;42646;51.910;7.724;2022-09-29T06:52:02;13.82;;;10.02;;
39264;SDS011;42646;51.910;7.724;2022-09-29T06:54:44;13.07;;;9.90;;
39264;SDS011;42646;51.910;7.724;2022-09-29T06:57:12;15.25;;;9.93;;
39264;SDS011;42646;51.910;7.724;2022-09-29T06:59:39;12.15;;;9.63;;
39264;SDS011;42646;51.910;7.724;2022-09-29T07:02:08;14.00;;;9.93;;
39264;SDS011;42646;51.910;7.724;2022-09-29T07:04:38;15.55;;;10.82;;
39264;SDS011;42646;51.910;7.724;2022-09-29T07:07:05;13.52;;;9.95;;
39264;SDS011;42646;51.910;7.724;2022-09-29T07:09:33;13.75;;;10.35;;
39264;SDS011;42646;51.910;7.724;2022-09-29T07:12:00;13.70;;;10.38;;
39264;SDS011;42646;51.910;7.724;2022-09-29T07:14:28;14.77;;;11.27;;
39264;SDS011;42646;51.910;7.724;2022-09-29T07:16:56;14.35;;;10.82;;
39264;SDS011;42646;51.910;7.724;2022-09-29T07:19:24;14.73;;;11.20;;
39264;SDS011;42646;51.910;7.724;2022-09-29T07:21:53;14.18;;;10.82;;
39264;SDS011;42646;51.910;7.724;2022-09-29T07:24:22;14.38;;;11.27;;
39264;SDS011;42646;51.910;7.724;2022-09-29T07:26:50;14.60;;;11.20;;
39264;SDS011;42646;51.910;7.724;2022-09-29T07:29:17;17.13;;;12.02;;
39264;SDS011;42646;51.910;7.724;2022-09-29T07:31:45;15.32;;;11.77;;
39264;SDS011;42646;51.910;7.724;2022-09-29T07:34:18;15.10;;;12.02;;
39264;SDS011;42646;51.910;7.724;2022-09-29T07:36:47;14.68;;;11.52;;
39264;SDS011;42646;51.910;7.724;2022-09-29T07:39:16;16.65;;;12.25;;
39264;SDS011;42646;51.910;7.724;2022-09-29T07:41:43;16.13;;;12.10;;
39264;SDS011;42646;51.910;7.724;2022-09-29T07:44:11;15.80;;;11.63;;
39264;SDS011;42646;51.910;7.724;2022-09-29T07:46:40;15.70;;;12.02;;
39264;SDS011;42646;51.910;7.724;2022-09-29T07:49:07;16.20;;;12.80;;
39264;SDS011;42646;51.910;7.724;2022-09-29T07:51:35;16.33;;;12.77;;
39264;SDS011;42646;51.910;7.724;2022-09-29T07:54:03;16.95;;;12.82;;
39264;SDS011;42646;51.910;7.724;2022-09-29T07:56:32;14.80;;;11.70;;
39264;SDS011;42646;51.910;7.724;2022-09-29T07:59:00;16.95;;;13.23;;
39264;SDS011;42646;51.910;7.724;2022-09-29T08:01:29;16.52;;;13.52;;
39264;SDS011;42646;51.910;7.724;2022-09-29T08:03:57;15.60;;;11.98;;
39264;SDS011;42646;51.910;7.724;2022-09-29T08:06:25;15.93;;;12.65;;
39264;SDS011;42646;51.910;7.724;2022-09-29T08:08:54;22.55;;;15.60;;
39264;SDS011;42646;51.910;7.724;2022-09-29T08:11:30;18.70;;;15.15;;
39264;SDS011;42646;51.910;7.724;2022-09-29T08:14:00;18.05;;;13.63;;
39264;SDS011;42646;51.910;7.724;2022-09-29T08:16:28;15.15;;;12.15;;
39264;SDS011;42646;51.910;7.724;2022-09-29T08:18:57;14.27;;;11.45;;
39264;SDS011;42646;51.910;7.724;2022-09-29T08:21:25;15.45;;;11.70;;
39264;SDS011;42646;51.910;7.724;2022-09-29T08:23:53;14.65;;;11.93;;
39264;SDS011;42646;51.910;7.724;2022-09-29T08:26:21;14.57;;;11.18;;
39264;SDS011;42646;51.910;7.724;2022-09-29T08:29:07;16.08;;;12.32;;
39264;SDS011;42646;51.910;7.724;2022-09-29T08:31:41;14.27;;;11.38;;
39264;SDS011;42646;51.910;7.724;2022-09-29T08:34:09;13.93;;;11.13;;
39264;SDS011;42646;51.910;7.724;2022-09-29T08:36:39;15.45;;;11.13;;
39264;SDS011;42646;51.910;7.724;2022-09-29T08:39:08;10.93;;;9.68;;
39264;SDS011;42646;51.910;7.724;2022-09-29T08:41:39;12.90;;;10.43;;
39264;SDS011;42646;51.910;7.724;2022-09-29T08:44:17;13.30;;;10.65;;
39264;SDS011;42646;51.910;7.724;2022-09-29T08:47:03;12.63;;;9.70;;
39264;SDS011;42646;51.910;7.724;2022-09-29T08:49:41;14.93;;;12.05;;
39264;SDS011;42646;51.910;7.724;2022-09-29T08:52:13;11.75;;;9.77;;
39264;SDS011;42646;51.910;7.724;2022-09-29T08:54:45;13.25;;;10.77;;
39264;SDS011;42646;51.910;7.724;2022-09-29T08:57:16;13.23;;;10.25;;
39264;SDS011;42646;51.910;7.724;2022-09-29T08:59:49;12.52;;;10.10;;
39264;SDS011;42646;51.910;7.724;2022-09-29T09:02:25;14.00;;;10.23;;
39264;SDS011;42646;51.910;7.724;2022-09-29T09:05:22;14.70;;;11.00;;
39264;SDS011;42646;51.910;7.724;2022-09-29T09:07:59;12.13;;;9.48;;
39264;SDS011;42646;51.910;7.724;2022-09-29T09:10:35;12.65;;;10.43;;
39264;SDS011;42646;51.910;7.724;2022-09-29T09:13:12;10.45;;;9.02;;
39264;SDS011;42646;51.910;7.724;2022-09-29T09:18:52;11.70;;;8.93;;
39264;SDS011;42646;51.910;7.724;2022-09-29T09:21:33;11.70;;;8.75;;
39264;SDS011;42646;51.910;7.724;2022-09-29T09:24:08;11.60;;;8.70;;
39264;SDS011;42646;51.910;7.724;2022-09-29T09:26:46;11.90;;;9.80;;
39264;SDS011;42646;51.910;7.724;2022-09-29T09:29:16;13.10;;;9.57;;
39264;SDS011;42646;51.910;7.724;2022-09-29T09:31:55;14.35;;;10.40;;
39264;SDS011;42646;51.910;7.724;2022-09-29T09:34:27;10.90;;;8.90;;
39264;SDS011;42646;51.910;7.724;2022-09-29T09:37:10;11.98;;;8.77;;
39264;SDS011;42646;51.910;7.724;2022-09-29T09:39:42;12.13;;;8.85;;
39264;SDS011;42646;51.910;7.724;2022-09-29T09:42:14;11.93;;;9.13;;
39264;SDS011;42646;51.910;7.724;2022-09-29T09:44:45;10.68;;;8.30;;
39264;SDS011;42646;51.910;7.724;2022-09-29T09:47:22;12.20;;;8.68;;
39264;SDS011;42646;51.910;7.724;2022-09-29T09:49:53;10.27;;;7.90;;
39264;SDS011;42646;51.910;7.724;2022-09-29T09:52:25;12.30;;;8.65;;
39264;SDS011;42646;51.910;7.724;2022-09-29T09:54:58;10.77;;;8.35;;
39264;SDS011;42646;51.910;7.724;2022-09-29T09:57:44;9.02;;;7.70;;
39264;SDS011;42646;51.910;7.724;2022-09-29T10:00:24;9.48;;;7.45;;
39264;SDS011;42646;51.910;7.724;2022-09-29T10:03:00;11.02;;;7.55;;
39264;SDS011;42646;51.910;7.724;2022-09-29T10:05:31;8.85;;;7.32;;
39264;SDS011;42646;51.910;7.724;2022-09-29T10:08:03;9.27;;;7.50;;
39264;SDS011;42646;51.910;7.724;2022-09-29T10:10:32;11.35;;;7.50;;
39264;SDS011;42646;51.910;7.724;2022-09-29T10:13:01;9.80;;;7.45;;
39264;SDS011;42646;51.910;7.724;2022-09-29T10:15:30;9.40;;;7.28;;
39264;SDS011;42646;51.910;7.724;2022-09-29T10:18:05;8.77;;;7.03;;
39264;SDS011;42646;51.910;7.724;2022-09-29T10:20:39;10.38;;;7.22;;
39264;SDS011;42646;51.910;7.724;2022-09-29T10:26:01;9.65;;;7.05;;
39264;SDS011;42646;51.910;7.724;2022-09-29T10:28:36;7.75;;;6.20;;
39264;SDS011;42646;51.910;7.724;2022-09-29T10:31:16;7.70;;;6.03;;
39264;SDS011;42646;51.910;7.724;2022-09-29T10:33:52;8.63;;;6.07;;
39264;SDS011;42646;51.910;7.724;2022-09-29T10:36:23;8.57;;;5.97;;
39264;SDS011;42646;51.910;7.724;2022-09-29T10:38:51;8.98;;;5.80;;
39264;SDS011;42646;51.910;7.724;2022-09-29T10:41:19;8.00;;;5.53;;
39264;SDS011;42646;51.910;7.724;2022-09-29T10:43:47;7.30;;;5.88;;
39264;SDS011;42646;51.910;7.724;2022-09-29T10:49:19;8.25;;;6.38;;
39264;SDS011;42646;51.910;7.724;2022-09-29T10:51:52;8.88;;;6.22;;
39264;SDS011;42646;51.910;7.724;2022-09-29T10:54:22;9.32;;;5.63;;
39264;SDS011;42646;51.910;7.724;2022-09-29T10:56:52;8.73;;;5.68;;
39264;SDS011;42646;51.910;7.724;2022-09-29T10:59:21;8.40;;;5.60;;
39264;SDS011;42646;51.910;7.724;2022-09-29T11:01:51;7.32;;;5.72;;
39264;SDS011;42646;51.910;7.724;2022-09-29T11:04:23;8.68;;;5.00;;
39264;SDS011;42646;51.910;7.724;2022-09-29T11:06:55;7.72;;;5.35;;
39264;SDS011;42646;51.910;7.724;2022-09-29T11:09:34;6.97;;;4.55;;
39264;SDS011;42646;51.910;7.724;2022-09-29T11:12:20;8.70;;;5.35;;
39264;SDS011;42646;51.910;7.724;2022-09-29T11:14:52;8.43;;;5.30;;
39264;SDS011;42646;51.910;7.724;2022-09-29T11:17:21;6.80;;;4.97;;
39264;SDS011;42646;51.910;7.724;2022-09-29T11:19:53;6.32;;;4.60;;
39264;SDS011;42646;51.910;7.724;2022-09-29T11:22:44;6.55;;;4.40;;
39264;SDS011;42646;51.910;7.724;2022-09-29T11:25:39;7.95;;;4.80;;
39264;SDS011;42646;51.910;7.724;2022-09-29T11:28:18;6.32;;;4.35;;
39264;SDS011;42646;51.910;7.724;2022-09-29T11:31:01;6.38;;;4.65;;
39264;SDS011;42646;51.910;7.724;2022-09-29T11:36:16;5.22;;;3.00;;
39264;SDS011;42646;51.910;7.724;2022-09-29T11:38:53;4.60;;;3.10;;
39264;SDS011;42646;51.910;7.724;2022-09-29T11:41:38;4.57;;;3.78;;
39264;SDS011;42646;51.910;7.724;2022-09-29T11:47:18;7.10;;;4.75;;
39264;SDS011;42646;51.910;7.724;2022-09-29T11:50:08;6.13;;;4.55;;
39264;SDS011;42646;51.910;7.724;2022-09-29T11:52:52;6.00;;;4.32;;
39264;SDS011;42646;51.910;7.724;2022-09-29T11:55:37;6.13;;;4.40;;
39264;SDS011;42646;51.910;7.724;2022-09-29T11:58:21;4.95;;;3.90;;
39264;SDS011;42646;51.910;7.724;2022-09-29T12:01:10;7.30;;;4.00;;
39264;SDS011;42646;51.910;7.724;2022-09-29T12:03:51;5.22;;;3.50;;
39264;SDS011;42646;51.910;7.724;2022-09-29T12:06:40;5.10;;;3.05;;
39264;SDS011;42646;51.910;7.724;2022-09-29T12:12:25;3.03;;;1.80;;
39264;SDS011;42646;51.910;7.724;2022-09-29T12:15:04;3.20;;;2.10;;
39264;SDS011;42646;51.910;7.724;2022-09-29T12:17:40;3.50;;;2.30;;
39264;SDS011;42646;51.910;7.724;2022-09-29T12:20:13;3.60;;;2.10;;
39264;SDS011;42646;51.910;7.724;2022-09-29T12:22:46;4.47;;;2.25;;
39264;SDS011;42646;51.910;7.724;2022-09-29T12:25:17;4.15;;;2.30;;
39264;SDS011;42646;51.910;7.724;2022-09-29T12:27:50;4.15;;;2.25;;
39264;SDS011;42646;51.910;7.724;2022-09-29T12:30:22;3.90;;;2.08;;
39264;SDS011;42646;51.910;7.724;2022-09-29T12:32:56;3.10;;;1.85;;
39264;SDS011;42646;51.910;7.724;2022-09-29T12:35:30;3.90;;;2.33;;
39264;SDS011;42646;51.910;7.724;2022-09-29T12:38:10;3.13;;;1.80;;
39264;SDS011;42646;51.910;7.724;2022-09-29T12:40:45;3.55;;;1.80;;
39264;SDS011;42646;51.910;7.724;2022-09-29T12:43:22;3.28;;;1.70;;
39264;SDS011;42646;51.910;7.724;2022-09-29T12:45:58;3.70;;;1.75;;
39264;SDS011;42646;51.910;7.724;2022-09-29T12:48:41;3.80;;;1.67;;
39264;SDS011;42646;51.910;7.724;2022-09-29T12:51:19;3.78;;;1.90;;
39264;SDS011;42646;51.910;7.724;2022-09-29T12:53:59;3.13;;;1.70;;
39264;SDS011;42646;51.910;7.724;2022-09-29T12:56:39;4.82;;;2.38;;
39264;SDS011;42646;51.910;7.724;2022-09-29T12:59:13;3.65;;;2.40;;
39264;SDS011;42646;51.910;7.724;2022-09-29T13:01:54;3.05;;;2.17;;
39264;SDS011;42646;51.910;7.724;2022-09-29T13:04:30;5.68;;;2.47;;
39264;SDS011;42646;51.910;7.724;2022-09-29T13:07:18;3.45;;;2.15;;
39264;SDS011;42646;51.910;7.724;2022-09-29T13:10:04;4.35;;;2.17;;
39264;SDS011;42646;51.910;7.724;2022-09-29T13:13:01;3.67;;;2.10;;
39264;SDS011;42646;51.910;7.724;2022-09-29T13:15:51;3.28;;;1.90;;
39264;SDS011;42646;51.910;7.724;2022-09-29T13:18:44;3.95;;;2.00;;
39264;SDS011;42646;51.910;7.724;2022-09-29T13:21:45;2.92;;;1.70;;
39264;SDS011;42646;51.910;7.724;2022-09-29T13:24:32;4.20;;;1.88;;
39264;SDS011;42646;51.910;7.724;2022-09-29T13:27:20;2.45;;;1.60;;
39264;SDS011;42646;51.910;7.724;2022-09-29T13:29:56;3.85;;;1.88;;
39264;SDS011;42646;51.910;7.724;2022-09-29T13:32:27;3.17;;;1.70;;
39264;SDS011;42646;51.910;7.724;2022-09-29T13:34:58;3.10;;;1.67;;
39264;SDS011;42646;51.910;7.724;2022-09-29T13:37:34;3.35;;;1.30;;
39264;SDS011;42646;51.910;7.724;2022-09-29T13:40:14;3.08;;;1.60;;
39264;SDS011;42646;51.910;7.724;2022-09-29T13:42:45;3.15;;;1.65;;
39264;SDS011;42646;51.910;7.724;2022-09-29T13:45:15;3.83;;;1.80;;
39264;SDS011;42646;51.910;7.724;2022-09-29T14:00:04;3.55;;;1.90;;
39264;SDS011;42646;51.910;7.724;2022-09-29T14:03:05;4.47;;;1.98;;
39264;SDS011;42646;51.910;7.724;2022-09-29T14:05:54;3.63;;;1.80;;
39264;SDS011;42646;51.910;7.724;2022-09-29T14:08:24;4.15;;;2.03;;
39264;SDS011;42646;51.910;7.724;2022-09-29T14:10:59;5.10;;;2.00;;
39264;SDS011;42646;51.910;7.724;2022-09-29T14:13:31;3.60;;;1.90;;
39264;SDS011;42646;51.910;7.724;2022-09-29T14:16:17;3.70;;;1.83;;
39264;SDS011;42646;51.910;7.724;2022-09-29T14:18:58;3.67;;;2.00;;
39264;SDS011;42646;51.910;7.724;2022-09-29T14:21:47;4.13;;;1.92;;
39264;SDS011;42646;51.910;7.724;2022-09-29T14:27:22;3.63;;;1.90;;
39264;SDS011;42646;51.910;7.724;2022-09-29T14:29:54;3.20;;;1.60;;
39264;SDS011;42646;51.910;7.724;2022-09-29T14:32:31;3.38;;;1.83;;
39264;SDS011;42646;51.910;7.724;2022-09-29T14:35:19;3.88;;;1.85;;
39264;SDS011;42646;51.910;7.724;2022-09-29T14:37:57;3.35;;;1.65;;
39264;SDS011;42646;51.910;7.724;2022-09-29T14:40:29;4.60;;;1.77;;
39264;SDS011;42646;51.910;7.724;2022-09-29T14:43:13;3.83;;;1.65;;
39264;SDS011;42646;51.910;7.724;2022-09-29T14:45:50;3.30;;;1.50;;
39264;SDS011;42646;51.910;7.724;2022-09-29T14:48:47;3.72;;;1.73;;
39264;SDS011;42646;51.910;7.724;2022-09-29T14:51:44;3.63;;;1.70;;
39264;SDS011;42646;51.910;7.724;2022-09-29T14:54:25;2.90;;;1.70;;
39264;SDS011;42646;51.910;7.724;2022-09-29T14:57:03;5.45;;;1.73;;
39264;SDS011;42646;51.910;7.724;2022-09-29T14:59:45;3.50;;;1.70;;
39264;SDS011;42646;51.910;7.724;2022-09-29T15:02:23;3.03;;;1.63;;
39264;SDS011;42646;51.910;7.724;2022-09-29T15:04:54;4.13;;;1.88;;
39264;SDS011;42646;51.910;7.724;2022-09-29T15:07:24;3.22;;;1.77;;
39264;SDS011;42646;51.910;7.724;2022-09-29T15:09:53;3.55;;;1.70;;
39264;SDS011;42646;51.910;7.724;2022-09-29T15:12:23;3.58;;;1.65;;
39264;SDS011;42646;51.910;7.724;2022-09-29T15:14:52;3.83;;;1.60;;
39264;SDS011;42646;51.910;7.724;2022-09-29T15:20:12;2.92;;;1.45;;
39264;SDS011;42646;51.910;7.724;2022-09-29T15:23:00;2.92;;;1.55;;
39264;SDS011;42646;51.910;7.724;2022-09-29T15:25:38;3.30;;;1.60;;
39264;SDS011;42646;51.910;7.724;2022-09-29T15:28:09;3.08;;;1.60;;
39264;SDS011;42646;51.910;7.724;2022-09-29T15:30:42;2.92;;;1.50;;
39264;SDS011;42646;51.910;7.724;2022-09-29T15:33:16;3.70;;;1.58;;
39264;SDS011;42646;51.910;7.724;2022-09-29T15:35:48;3.05;;;1.40;;
39264;SDS011;42646;51.910;7.724;2022-09-29T15:38:29;3.33;;;1.45;;
39264;SDS011;42646;51.910;7.724;2022-09-29T15:41:00;3.30;;;1.42;;
39264;SDS011;42646;51.910;7.724;2022-09-29T15:43:33;2.53;;;1.40;;
39264;SDS011;42646;51.910;7.724;2022-09-29T15:46:14;3.45;;;1.70;;
39264;SDS011;42646;51.910;7.724;2022-09-29T15:49:04;3.15;;;1.40;;
39264;SDS011;42646;51.910;7.724;2022-09-29T15:51:39;3.28;;;1.65;;